createdAt,value
2022-08-16T00:00:22.193Z,5.82
2022-08-16T00:02:54.021Z,5.63
2022-08-16T00:05:25.284Z,5.53
2022-08-16T00:07:59.074Z,6.70
2022-08-16T00:10:33.336Z,6.07
2022-08-16T00:13:03.756Z,4.97
2022-08-16T00:15:51.887Z,7.32
2022-08-16T00:18:29.498Z,5.20
2022-08-16T00:21:00.878Z,5.63
2022-08-16T00:23:34.644Z,5.57
2022-08-16T00:26:36.487Z,5.63
2022-08-16T00:29:00.975Z,5.78
2022-08-16T00:32:00.065Z,5.95
2022-08-16T00:34:44.028Z,5.85
2022-08-16T00:37:20.276Z,6.03
2022-08-16T00:39:57.248Z,7.10
2022-08-16T00:42:31.645Z,6.80
2022-08-16T00:45:15.057Z,6.88
2022-08-16T00:47:50.488Z,5.65
2022-08-16T00:50:36.018Z,5.97
2022-08-16T00:53:08.253Z,6.55
2022-08-16T00:55:40.182Z,6.45
2022-08-16T00:58:13.040Z,6.53
2022-08-16T01:00:54.006Z,7.28
2022-08-16T01:03:31.685Z,7.53
2022-08-16T01:06:39.584Z,8.18
2022-08-16T01:08:59.899Z,7.88
2022-08-16T01:11:31.014Z,8.25
2022-08-16T01:14:09.234Z,8.02
2022-08-16T01:16:41.106Z,8.70
2022-08-16T01:19:23.457Z,8.05
2022-08-16T01:22:48.318Z,8.43
2022-08-16T01:24:56.844Z,7.97
2022-08-16T01:27:34.577Z,7.97
2022-08-16T01:30:19.327Z,8.48
2022-08-16T01:33:01.601Z,8.32
2022-08-16T01:35:47.351Z,9.73
2022-08-16T01:38:28.490Z,7.65
2022-08-16T01:41:03.911Z,7.88
2022-08-16T01:43:34.865Z,9.02
2022-08-16T01:46:29.704Z,8.20
2022-08-16T01:49:02.949Z,8.30
2022-08-16T01:51:34.011Z,8.70
2022-08-16T01:54:10.003Z,8.32
2022-08-16T01:56:46.223Z,8.18
2022-08-16T01:59:19.387Z,8.35
2022-08-16T02:04:49.587Z,8.57
2022-08-16T02:07:23.950Z,9.15
2022-08-16T02:09:56.978Z,9.23
2022-08-16T02:12:43.569Z,8.70
2022-08-16T02:15:25.344Z,9.10
2022-08-16T02:17:56.226Z,8.55
2022-08-16T02:22:58.490Z,8.13
2022-08-16T02:25:51.221Z,8.77
2022-08-16T02:28:24.807Z,9.18
2022-08-16T02:30:55.697Z,8.50
2022-08-16T02:33:42.784Z,8.63
2022-08-16T02:36:47.753Z,9.80
2022-08-16T02:39:10.107Z,8.65
2022-08-16T02:41:42.734Z,8.65
2022-08-16T02:44:16.435Z,8.02
2022-08-16T02:46:53.686Z,9.00
2022-08-16T02:49:32.207Z,8.88
2022-08-16T02:52:17.223Z,8.55
2022-08-16T02:54:59.577Z,9.05
2022-08-16T02:57:31.115Z,7.85
2022-08-16T03:00:33.908Z,8.45
2022-08-16T03:02:58.929Z,8.52
2022-08-16T03:05:30.879Z,8.15
2022-08-16T03:08:01.998Z,9.52
2022-08-16T03:10:33.695Z,9.38
2022-08-16T03:13:12.255Z,9.68
2022-08-16T03:15:45.859Z,9.40
2022-08-16T03:18:34.665Z,10.88
2022-08-16T03:23:44.164Z,8.98
2022-08-16T03:26:15.336Z,8.65
2022-08-16T03:28:51.399Z,9.52
2022-08-16T03:31:25.650Z,8.93
2022-08-16T03:34:05.014Z,10.75
2022-08-16T03:36:35.626Z,9.13
2022-08-16T03:39:06.319Z,8.15
2022-08-16T03:41:50.255Z,9.32
2022-08-16T03:44:44.042Z,9.27
2022-08-16T03:47:19.191Z,9.85
2022-08-16T03:52:23.458Z,10.20
2022-08-16T03:54:57.912Z,10.18
2022-08-16T03:57:31.933Z,10.65
2022-08-16T04:00:35.322Z,9.52
2022-08-16T04:03:09.830Z,9.60
2022-08-16T04:05:46.764Z,9.75
2022-08-16T04:08:23.794Z,11.73
2022-08-16T04:10:57.878Z,10.05
2022-08-16T04:14:00.062Z,10.25
2022-08-16T04:16:27.383Z,11.98
2022-08-16T04:19:04.369Z,10.50
2022-08-16T04:21:35.586Z,9.80
2022-08-16T04:24:07.901Z,9.43
2022-08-16T04:26:46.181Z,9.98
2022-08-16T04:29:21.747Z,10.18
2022-08-16T04:31:58.068Z,10.15
2022-08-16T04:34:33.589Z,10.35
2022-08-16T04:37:04.229Z,12.63
2022-08-16T04:39:46.648Z,13.48
2022-08-16T04:42:19.000Z,11.10
2022-08-16T04:44:58.599Z,10.13
2022-08-16T04:47:35.962Z,10.50
2022-08-16T04:50:12.009Z,9.60
2022-08-16T04:52:47.224Z,10.07
2022-08-16T04:55:21.287Z,9.73
2022-08-16T04:58:02.890Z,10.45
2022-08-16T05:00:53.028Z,9.00
2022-08-16T05:03:23.475Z,10.93
2022-08-16T05:05:59.816Z,9.00
2022-08-16T05:08:36.429Z,10.13
2022-08-16T05:11:09.965Z,9.50
2022-08-16T05:13:45.187Z,9.98
2022-08-16T05:16:21.425Z,9.32
2022-08-16T05:18:56.909Z,8.70
2022-08-16T05:21:38.205Z,8.70
2022-08-16T05:24:10.388Z,8.90
2022-08-16T05:26:43.266Z,8.57
2022-08-16T05:29:20.492Z,8.77
2022-08-16T05:31:52.994Z,9.95
2022-08-16T05:34:25.250Z,8.63
2022-08-16T05:36:58.832Z,9.52
2022-08-16T05:39:29.739Z,8.95
2022-08-16T05:42:03.797Z,8.55
2022-08-16T05:44:33.819Z,8.00
2022-08-16T05:47:04.990Z,8.98
2022-08-16T05:49:39.555Z,9.52
2022-08-16T05:52:17.326Z,9.52
2022-08-16T05:55:01.294Z,9.40
2022-08-16T05:57:35.439Z,9.25
2022-08-16T06:00:09.331Z,8.48
2022-08-16T06:02:40.682Z,8.63
2022-08-16T06:05:11.885Z,9.13
2022-08-16T06:07:58.312Z,10.15
2022-08-16T06:10:32.911Z,9.95
2022-08-16T06:13:03.781Z,12.10
2022-08-16T06:15:33.906Z,9.55
2022-08-16T06:18:05.445Z,9.55
2022-08-16T06:20:36.883Z,8.77
2022-08-16T06:26:03.049Z,6.40
2022-08-16T06:28:38.471Z,8.60
2022-08-16T06:31:12.330Z,8.30
2022-08-16T06:33:44.928Z,6.25
2022-08-16T06:36:16.812Z,8.75
2022-08-16T06:38:55.836Z,8.18
2022-08-16T06:41:27.795Z,7.72
2022-08-16T06:43:58.191Z,7.75
2022-08-16T06:49:05.477Z,7.82
2022-08-16T06:51:48.163Z,7.97
2022-08-16T06:56:53.962Z,9.13
2022-08-16T06:59:25.802Z,9.13
2022-08-16T07:01:56.404Z,8.15
2022-08-16T07:04:32.445Z,9.95
2022-08-16T07:07:03.537Z,11.43
2022-08-16T07:09:36.132Z,8.27
2022-08-16T07:12:07.687Z,8.25
2022-08-16T07:14:37.869Z,9.68
2022-08-16T07:17:12.651Z,9.80
2022-08-16T07:20:29.533Z,13.35
2022-08-16T07:22:38.742Z,9.95
2022-08-16T07:27:56.279Z,15.00
2022-08-16T07:30:45.402Z,15.45
2022-08-16T07:33:21.380Z,11.10
2022-08-16T07:36:09.662Z,10.63
2022-08-16T07:38:40.311Z,10.52
2022-08-16T07:41:13.741Z,12.63
2022-08-16T07:43:46.263Z,11.73
2022-08-16T07:46:39.299Z,10.82
2022-08-16T07:49:11.528Z,10.60
2022-08-16T07:51:42.243Z,8.45
2022-08-16T07:54:21.399Z,8.35
2022-08-16T07:57:05.370Z,7.35
2022-08-16T07:59:42.685Z,7.53
2022-08-16T08:02:14.222Z,7.18
2022-08-16T08:04:51.253Z,7.18
2022-08-16T08:07:21.722Z,6.90
2022-08-16T08:09:53.225Z,7.82
2022-08-16T08:15:09.811Z,6.10
2022-08-16T08:17:42.726Z,7.25
2022-08-16T08:20:20.771Z,6.30
2022-08-16T08:23:01.293Z,7.10
2022-08-16T08:25:53.712Z,6.82
2022-08-16T08:28:26.426Z,7.55
2022-08-16T08:31:00.908Z,8.20
2022-08-16T08:33:32.237Z,6.95
2022-08-16T08:36:08.587Z,7.00
2022-08-16T08:38:44.939Z,7.57
2022-08-16T08:41:18.957Z,6.53
2022-08-16T08:43:52.653Z,6.85
2022-08-16T08:46:22.929Z,8.63
2022-08-16T08:48:59.869Z,6.90
2022-08-16T08:51:36.887Z,5.65
2022-08-16T08:54:09.656Z,5.57
2022-08-16T08:56:45.812Z,5.03
2022-08-16T09:01:56.522Z,4.88
2022-08-16T09:04:28.924Z,5.32
2022-08-16T09:07:01.332Z,5.03
2022-08-16T09:09:33.674Z,5.10
2022-08-16T09:12:06.777Z,4.88
2022-08-16T09:14:50.927Z,4.82
2022-08-16T09:17:45.669Z,4.95
2022-08-16T09:20:14.525Z,5.38
2022-08-16T09:22:51.422Z,4.68
2022-08-16T09:25:26.402Z,4.85
2022-08-16T09:28:09.245Z,4.57
2022-08-16T09:30:44.276Z,4.72
2022-08-16T09:33:20.489Z,5.22
2022-08-16T09:38:32.063Z,5.22
2022-08-16T09:41:04.229Z,4.68
2022-08-16T09:43:59.614Z,4.95
2022-08-16T09:46:45.578Z,6.22
2022-08-16T09:49:19.713Z,5.57
2022-08-16T09:51:53.680Z,4.93
2022-08-16T09:54:24.106Z,6.13
2022-08-16T09:57:02.929Z,4.55
2022-08-16T09:59:38.856Z,4.95
2022-08-16T10:02:26.155Z,4.75
2022-08-16T10:04:59.014Z,4.53
2022-08-16T10:07:44.505Z,4.70
2022-08-16T10:10:18.987Z,4.40
2022-08-16T10:13:14.243Z,3.95
2022-08-16T10:15:53.343Z,3.22
2022-08-16T10:18:56.308Z,6.35
2022-08-16T10:21:20.754Z,3.83
2022-08-16T10:23:54.886Z,4.22
2022-08-16T10:27:21.946Z,5.68
2022-08-16T10:29:19.981Z,5.97
2022-08-16T10:31:53.839Z,4.68
2022-08-16T10:34:31.130Z,4.95
2022-08-16T10:37:02.786Z,6.47
2022-08-16T10:39:41.856Z,2.10
2022-08-16T10:42:13.660Z,3.22
2022-08-16T10:44:53.813Z,3.15
2022-08-16T10:47:26.505Z,2.65
2022-08-16T10:50:03.317Z,1.88
2022-08-16T10:55:40.856Z,2.08
2022-08-16T10:58:17.485Z,3.13
2022-08-16T11:00:52.113Z,2.38
2022-08-16T11:03:46.115Z,2.85
2022-08-16T11:14:37.999Z,2.67
2022-08-16T11:17:11.377Z,2.58
2022-08-16T11:22:41.913Z,2.85
2022-08-16T11:28:36.503Z,2.30
2022-08-16T11:31:04.720Z,2.72
2022-08-16T11:36:28.249Z,9.57
2022-08-16T11:39:02.833Z,4.18
2022-08-16T11:41:36.120Z,4.10
2022-08-16T11:44:07.205Z,3.35
2022-08-16T11:46:44.990Z,2.67
2022-08-16T11:49:17.523Z,3.40
2022-08-16T11:51:49.740Z,3.92
2022-08-16T11:54:27.233Z,3.50
2022-08-16T11:57:09.348Z,3.80
2022-08-16T11:59:41.184Z,3.92
2022-08-16T12:02:30.971Z,2.17
2022-08-16T12:05:02.600Z,4.15
2022-08-16T12:07:33.363Z,3.03
2022-08-16T12:10:08.850Z,4.13
2022-08-16T12:12:39.200Z,3.35
2022-08-16T12:15:10.997Z,1.95
2022-08-16T12:17:41.707Z,3.80
2022-08-16T12:20:18.598Z,2.13
2022-08-16T12:22:51.243Z,2.10
2022-08-16T12:25:27.733Z,2.50
2022-08-16T12:27:58.507Z,2.40
2022-08-16T12:30:38.622Z,1.88
2022-08-16T12:33:13.691Z,1.90
2022-08-16T12:35:44.120Z,2.20
2022-08-16T12:38:41.284Z,2.67
2022-08-16T12:41:08.135Z,2.10
2022-08-16T12:43:44.653Z,2.17
2022-08-16T12:46:15.731Z,1.73
2022-08-16T12:48:59.046Z,2.53
2022-08-16T12:51:33.088Z,2.58
2022-08-16T12:54:22.505Z,2.20
2022-08-16T12:56:56.372Z,2.38
2022-08-16T12:59:31.032Z,1.73
2022-08-16T13:02:02.058Z,2.10
2022-08-16T13:04:33.894Z,1.98
2022-08-16T13:07:06.107Z,2.15
2022-08-16T13:09:48.007Z,1.80
2022-08-16T13:12:25.041Z,2.00
2022-08-16T13:14:56.239Z,2.00
2022-08-16T13:17:29.840Z,2.10
2022-08-16T13:20:07.549Z,2.60
2022-08-16T13:25:31.730Z,2.03
2022-08-16T13:28:05.437Z,2.25
2022-08-16T13:30:41.905Z,2.08
2022-08-16T13:33:17.491Z,1.92
2022-08-16T13:35:56.381Z,3.75
2022-08-16T13:38:31.454Z,2.10
2022-08-16T13:41:08.942Z,2.22
2022-08-16T13:43:42.963Z,2.10
2022-08-16T13:46:13.232Z,2.45
2022-08-16T13:48:45.118Z,3.20
2022-08-16T13:51:18.079Z,3.00
2022-08-16T13:53:58.108Z,2.22
2022-08-16T13:56:37.008Z,2.75
2022-08-16T13:59:21.014Z,2.55
2022-08-16T14:01:55.125Z,3.35
2022-08-16T14:04:28.026Z,1.98
2022-08-16T14:06:59.223Z,1.95
2022-08-16T14:09:30.715Z,1.55
2022-08-16T14:12:09.566Z,1.98
2022-08-16T14:14:42.927Z,2.10
2022-08-16T14:17:13.069Z,2.00
2022-08-16T14:19:44.878Z,3.20
2022-08-16T14:22:30.233Z,2.03
2022-08-16T14:25:03.443Z,2.03
2022-08-16T14:27:38.926Z,2.17
2022-08-16T14:30:19.860Z,1.92
2022-08-16T14:32:51.520Z,2.05
2022-08-16T14:35:29.206Z,2.55
2022-08-16T14:38:07.960Z,2.22
2022-08-16T14:40:38.465Z,2.83
2022-08-16T14:43:10.481Z,2.85
2022-08-16T14:45:50.682Z,2.55
2022-08-16T14:48:25.931Z,1.95
2022-08-16T14:50:56.913Z,2.00
2022-08-16T14:53:27.900Z,1.83
2022-08-16T14:55:58.685Z,1.90
2022-08-16T14:58:36.811Z,2.35
2022-08-16T15:01:11.382Z,1.83
2022-08-16T15:03:44.866Z,1.90
2022-08-16T15:06:16.316Z,1.92
2022-08-16T15:08:46.794Z,1.75
2022-08-16T15:11:17.795Z,1.85
2022-08-16T15:13:47.981Z,1.80
2022-08-16T15:16:27.719Z,1.85
2022-08-16T15:18:59.799Z,2.28
2022-08-16T15:21:31.830Z,2.22
2022-08-16T15:24:03.070Z,2.03
2022-08-16T15:26:45.397Z,2.38
2022-08-16T15:29:17.531Z,1.92
2022-08-16T15:31:51.036Z,2.15
2022-08-16T15:34:31.274Z,1.90
2022-08-16T15:37:03.260Z,12.13
2022-08-16T15:39:39.436Z,6.28
2022-08-16T15:42:27.303Z,3.15
2022-08-16T15:44:58.974Z,2.15
2022-08-16T15:47:33.521Z,2.13
2022-08-16T15:50:07.005Z,1.48
2022-08-16T15:52:40.745Z,3.85
2022-08-16T15:55:31.078Z,2.13
2022-08-16T15:58:35.612Z,2.35
2022-08-16T16:00:54.290Z,1.98
2022-08-16T16:03:28.654Z,3.47
2022-08-16T16:06:06.040Z,2.17
2022-08-16T16:08:36.331Z,2.08
2022-08-16T16:11:12.062Z,3.70
2022-08-16T16:13:42.217Z,1.80
2022-08-16T16:16:19.428Z,2.03
2022-08-16T16:18:52.903Z,1.65
2022-08-16T16:21:23.273Z,2.30
2022-08-16T16:23:57.906Z,2.13
2022-08-16T16:26:30.863Z,2.72
2022-08-16T16:29:07.922Z,2.72
2022-08-16T16:31:41.520Z,11.85
2022-08-16T16:34:16.917Z,22.10
2022-08-16T16:36:48.461Z,15.57
2022-08-16T16:39:19.452Z,2.47
2022-08-16T16:41:49.960Z,3.13
2022-08-16T16:44:31.833Z,2.20
2022-08-16T16:47:07.007Z,1.85
2022-08-16T16:49:41.912Z,2.78
2022-08-16T16:52:43.552Z,2.65
2022-08-16T16:55:09.643Z,2.95
2022-08-16T16:57:52.717Z,4.45
2022-08-16T17:00:30.207Z,3.25
2022-08-16T17:03:16.825Z,3.03
2022-08-16T17:05:57.311Z,3.30
2022-08-16T17:08:34.379Z,3.13
2022-08-16T17:11:04.742Z,3.20
2022-08-16T17:13:38.731Z,2.72
2022-08-16T17:16:18.816Z,3.05
2022-08-16T17:19:14.756Z,3.58
2022-08-16T17:21:43.308Z,3.30
2022-08-16T17:24:17.654Z,3.47
2022-08-16T17:26:49.379Z,3.50
2022-08-16T17:29:29.024Z,3.47
2022-08-16T17:32:34.452Z,3.22
2022-08-16T17:34:52.313Z,3.10
2022-08-16T17:37:34.048Z,3.20
2022-08-16T17:40:25.396Z,11.00
2022-08-16T17:43:06.972Z,7.43
2022-08-16T17:45:38.008Z,12.07
2022-08-16T17:48:08.611Z,4.20
2022-08-16T17:50:39.220Z,3.33
2022-08-16T17:53:13.184Z,3.42
2022-08-16T17:55:46.721Z,5.60
2022-08-16T17:58:22.477Z,28.20
2022-08-16T18:00:55.393Z,27.25
2022-08-16T18:03:54.377Z,4.40
2022-08-16T18:06:18.908Z,4.82
2022-08-16T18:08:57.868Z,4.18
2022-08-16T18:11:34.041Z,5.82
2022-08-16T18:14:04.414Z,4.43
2022-08-16T18:16:34.737Z,6.90
2022-08-16T18:19:05.007Z,3.13
2022-08-16T18:21:47.483Z,3.25
2022-08-16T18:24:21.386Z,3.25
2022-08-16T18:26:51.499Z,3.35
2022-08-16T18:31:51.911Z,3.10
2022-08-16T18:34:22.240Z,3.25
2022-08-16T18:36:52.357Z,3.28
2022-08-16T18:41:55.159Z,5.40
2022-08-16T18:47:03.467Z,3.17
2022-08-16T18:49:33.579Z,4.38
2022-08-16T18:55:02.386Z,3.53
2022-08-16T18:57:27.152Z,3.28
2022-08-16T19:05:22.688Z,3.30
2022-08-16T19:07:52.837Z,4.03
2022-08-16T19:12:55.708Z,4.13
2022-08-16T19:15:31.402Z,10.52
2022-08-16T19:18:01.685Z,66.78
2022-08-16T19:20:32.947Z,12.82
2022-08-16T19:23:06.396Z,4.75
2022-08-16T19:25:49.702Z,4.28
2022-08-16T19:28:49.934Z,3.50
2022-08-16T19:31:18.441Z,3.78
2022-08-16T19:33:54.504Z,3.88
2022-08-16T19:36:31.980Z,3.83
2022-08-16T19:39:09.042Z,3.30
2022-08-16T19:41:53.625Z,3.97
2022-08-16T19:44:24.521Z,4.00
2022-08-16T19:46:55.050Z,4.35
2022-08-16T19:49:25.305Z,3.95
2022-08-16T19:54:25.405Z,3.85
2022-08-16T19:56:58.256Z,4.65
2022-08-16T19:59:39.504Z,4.70
2022-08-16T20:02:35.588Z,4.35
2022-08-16T20:05:08.409Z,4.47
2022-08-16T20:07:38.543Z,4.88
2022-08-16T20:12:42.071Z,4.50
2022-08-16T20:15:15.952Z,4.53
2022-08-16T20:17:47.208Z,4.53
2022-08-16T20:20:26.175Z,4.75
2022-08-16T20:22:57.701Z,5.13
2022-08-16T20:25:32.963Z,4.53
2022-08-16T20:28:06.326Z,5.07
2022-08-16T20:30:36.547Z,5.07
2022-08-16T20:33:14.319Z,5.75
2022-08-16T20:35:45.474Z,7.57
2022-08-16T20:38:16.133Z,5.35
2022-08-16T20:40:46.319Z,4.32
2022-08-16T20:43:19.381Z,5.53
2022-08-16T20:45:50.296Z,5.38
2022-08-16T20:48:20.555Z,18.25
2022-08-16T20:55:51.157Z,5.40
2022-08-16T20:58:23.935Z,5.30
2022-08-16T21:00:54.241Z,6.60
2022-08-16T21:03:24.569Z,5.88
2022-08-16T21:08:51.143Z,5.25
2022-08-16T21:11:16.537Z,6.05
2022-08-16T21:13:49.245Z,6.03
2022-08-16T21:16:20.886Z,5.75
2022-08-16T21:18:51.146Z,8.10
2022-08-16T21:21:23.151Z,14.35
2022-08-16T21:24:02.007Z,11.25
2022-08-16T21:26:32.346Z,6.50
2022-08-16T21:29:05.210Z,8.07
2022-08-16T21:31:38.174Z,7.03
2022-08-16T21:34:08.462Z,7.57
2022-08-16T21:36:39.100Z,7.45
2022-08-16T21:39:09.632Z,7.85
2022-08-16T21:41:40.077Z,7.25
2022-08-16T21:44:13.020Z,8.90
2022-08-16T21:46:43.345Z,7.70
2022-08-16T21:51:43.421Z,9.00
2022-08-16T21:54:13.864Z,8.50
2022-08-16T21:56:44.156Z,8.63
2022-08-16T22:01:47.350Z,9.73
2022-08-16T22:04:37.757Z,13.65
2022-08-16T22:07:07.949Z,10.95
2022-08-16T22:09:38.454Z,12.38
2022-08-16T22:12:09.632Z,12.57
2022-08-16T22:14:42.371Z,12.35
2022-08-16T22:17:12.669Z,13.68
2022-08-16T22:22:14.197Z,14.13
2022-08-16T22:24:44.429Z,13.38
2022-08-16T22:27:14.828Z,14.80
2022-08-16T22:29:47.563Z,13.82
2022-08-16T22:32:17.773Z,14.98
2022-08-16T22:34:47.949Z,13.75
2022-08-16T22:37:18.241Z,15.23
2022-08-16T22:42:18.766Z,15.10
2022-08-16T22:44:52.014Z,14.80
2022-08-16T22:47:22.250Z,14.98
2022-08-16T22:49:52.395Z,15.05
2022-08-16T22:52:48.787Z,18.73
2022-08-16T22:55:13.219Z,16.35
2022-08-16T22:57:43.535Z,16.58
2022-08-16T23:02:59.832Z,18.17
2022-08-16T23:05:32.496Z,18.48
2022-08-16T23:08:03.098Z,18.83
2022-08-16T23:10:33.655Z,16.80
2022-08-16T23:13:07.302Z,18.90
2022-08-16T23:15:46.727Z,19.00
2022-08-16T23:18:26.816Z,18.90
2022-08-16T23:21:00.447Z,18.02
2022-08-16T23:23:31.529Z,19.40
2022-08-16T23:26:02.452Z,19.77
2022-08-16T23:28:52.382Z,22.50
2022-08-16T23:31:25.022Z,22.10
2022-08-16T23:33:55.291Z,20.70
2022-08-16T23:36:25.451Z,19.95
2022-08-16T23:38:55.729Z,19.95
2022-08-16T23:41:25.841Z,19.83
2022-08-16T23:43:56.034Z,23.88
2022-08-16T23:46:29.289Z,23.42
2022-08-16T23:50:01.988Z,20.63
2022-08-16T23:51:49.878Z,20.13
2022-08-16T23:54:22.609Z,20.20
2022-08-16T23:56:52.658Z,19.17
2022-08-16T23:59:22.745Z,18.90
